Time;durP1;ratioP1;P1;durP2;ratioP2;P2;SDS_P1;SDS_P2;PMS_P1;PMS_P2;Temp;Humidity;BMP_temperature;BMP_pressure;BME280_temperature;BME280_humidity;BME280_pressure;Samples;Min_cycle;Max_cycle;Signal;HPM_P1;HPM_P2
2023/07/05 00:01:48;;;;;;;854.97;774.28;;;;;;;24.18;54.19;100391.69;5088058;28;20131;-72
2023/07/05 00:04:13;;;;;;;885.95;802.85;;;;;;;24.10;55.04;100398.56;5087796;28;20082;-71
2023/07/05 00:06:39;;;;;;;910.15;824.97;;;;;;;23.63;56.09;100385.03;5087904;28;20559;-71
2023/07/05 00:09:04;;;;;;;909.83;825.00;;;;;;;24.53;54.42;100372.16;5088204;28;20031;-71
2023/07/05 00:11:30;;;;;;;858.83;778.30;;;;;;;24.27;55.38;100362.59;5090944;28;20024;-71
2023/07/05 00:13:55;;;;;;;817.03;741.10;;;;;;;25.08;52.99;100342.16;5091710;28;20391;-72
2023/07/05 00:16:21;;;;;;;1999.90;999.90;;;;;;;24.36;53.81;100332.56;5089117;28;20510;-72
2023/07/05 00:18:46;;;;;;;1999.90;999.90;;;;;;;23.87;56.64;100329.88;5071272;28;20016;-72
2023/07/05 00:21:11;;;;;;;1636.63;873.50;;;;;;;23.83;57.49;100320.38;5089569;28;20084;-72
2023/07/05 00:23:39;;;;;;;739.55;668.08;;;;;;;24.12;56.02;100306.72;5071956;28;20113;-72
2023/07/05 00:26:06;;;;;;;776.45;703.95;;;;;;;24.35;56.13;100302.31;5077280;28;20020;-72
2023/07/05 00:28:35;;;;;;;847.05;766.33;;;;;;;24.29;55.97;100304.59;5092487;28;20035;-71
2023/07/05 00:31:02;;;;;;;1099.97;577.97;;;;;;;24.31;56.32;100283.97;5073565;28;20136;-71
2023/07/05 00:33:27;;;;;;;732.88;662.53;;;;;;;24.19;57.90;100265.25;5086173;28;20032;-71
2023/07/05 00:35:54;;;;;;;1999.90;999.90;;;;;;;24.71;55.64;100259.53;5081386;28;20492;-72
2023/07/05 00:38:21;;;;;;;1999.90;999.90;;;;;;;24.13;58.39;100249.69;5089640;28;20107;-72
2023/07/05 00:40:51;;;;;;;1999.90;999.90;;;;;;;24.19;58.28;100254.59;5090833;28;20487;-72
2023/07/05 00:43:18;;;;;;;1999.90;999.90;;;;;;;24.03;60.54;100235.38;5091356;28;20063;-71
2023/07/05 00:45:54;;;;;;;1999.90;999.90;;;;;;;24.19;58.63;100213.66;5090668;28;20029;-71
2023/07/05 00:48:39;;;;;;;1999.90;999.90;;;;;;;24.85;57.67;100216.56;5076802;28;20042;-72
2023/07/05 00:51:14;;;;;;;1999.90;999.90;;;;;;;24.90;56.12;100200.97;5091678;28;20030;-73
2023/07/05 00:53:40;;;;;;;1999.90;999.90;;;;;;;24.32;57.97;100201.06;5090194;28;20068;-73
2023/07/05 00:56:11;;;;;;;1999.90;999.90;;;;;;;24.61;57.92;100199.75;5090395;28;20075;-72
2023/07/05 00:58:37;;;;;;;1999.90;999.90;;;;;;;24.59;57.98;100201.69;5090916;28;20488;-73
2023/07/05 01:01:02;;;;;;;1999.90;999.90;;;;;;;24.89;56.71;100199.28;5092226;28;20028;-72
2023/07/05 01:03:29;;;;;;;1999.90;999.90;;;;;;;24.54;58.92;100194.91;5091827;28;20016;-72
2023/07/05 01:05:59;;;;;;;1999.90;999.90;;;;;;;24.41;59.43;100199.50;5091479;28;20030;-73
2023/07/05 01:08:24;;;;;;;1999.90;999.90;;;;;;;24.54;59.42;100188.72;5087900;28;20368;-72
2023/07/05 01:11:31;;;;;;;1999.90;999.90;;;;;;;24.17;59.47;100203.09;5076223;28;20046;-72
2023/07/05 01:14:33;;;;;;;1999.90;999.90;;;;;;;23.62;63.70;100201.97;5012253;28;20551;-73
2023/07/05 01:17:07;;;;;;;1999.90;999.90;;;;;;;23.02;68.81;100216.00;5082453;28;20119;-71
2023/07/05 01:19:48;;;;;;;1999.90;999.90;;;;;;;23.42;67.69;100212.28;5092491;28;20053;-72
2023/07/05 01:22:52;;;;;;;1999.90;999.90;;;;;;;24.12;65.03;100196.44;5088673;28;20112;-71
2023/07/05 01:25:39;;;;;;;1999.90;999.90;;;;;;;24.60;59.29;100182.88;5071561;28;20024;-71
2023/07/05 01:28:14;;;;;;;1999.90;999.90;;;;;;;24.96;57.02;100204.97;5069218;28;20059;-71
2023/07/05 01:31:04;;;;;;;1999.90;999.90;;;;;;;25.08;55.78;100189.78;5071207;28;20052;-70
2023/07/05 01:33:42;;;;;;;1999.90;999.90;;;;;;;24.01;57.73;100183.91;5073867;28;20074;-71
2023/07/05 01:36:09;;;;;;;1999.90;999.90;;;;;;;23.35;59.01;100187.03;5088151;28;20276;-69
2023/07/05 01:38:34;;;;;;;1999.90;999.90;;;;;;;23.69;56.95;100204.03;5081294;28;20480;-71
2023/07/05 01:41:07;;;;;;;1999.90;999.90;;;;;;;23.47;56.88;100204.78;5075661;28;20047;-70
2023/07/05 01:43:35;;;;;;;1999.90;999.90;;;;;;;22.32;58.80;100208.50;5078588;28;20472;-70
2023/07/05 01:46:07;;;;;;;1999.90;999.90;;;;;;;21.93;61.55;100210.28;5089518;28;20036;-70
2023/07/05 01:49:03;;;;;;;1999.90;999.90;;;;;;;22.57;59.91;100228.13;5078928;28;20051;-70
2023/07/05 01:51:34;;;;;;;1999.90;999.90;;;;;;;22.21;59.13;100214.56;5074863;28;20031;-70
2023/07/05 01:54:15;;;;;;;1999.90;999.90;;;;;;;23.08;58.19;100224.50;5075867;28;20395;-70
2023/07/05 01:56:51;;;;;;;1999.90;999.90;;;;;;;21.57;59.89;100219.72;5036177;28;20044;-70
2023/07/05 01:59:22;;;;;;;1999.90;999.90;;;;;;;21.46;61.33;100231.03;5051088;28;20028;-69
2023/07/05 02:01:53;;;;;;;1999.90;999.90;;;;;;;22.08;59.90;100211.91;5069719;28;20542;-72
2023/07/05 02:04:21;;;;;;;1999.90;999.90;;;;;;;22.23;59.90;100222.44;5051008;28;20126;-70
2023/07/05 02:06:46;;;;;;;1999.90;999.90;;;;;;;21.04;65.08;100233.72;5052781;28;20367;-69
2023/07/05 02:09:12;;;;;;;1999.90;999.90;;;;;;;20.75;65.70;100233.75;5053871;28;20400;-69
2023/07/05 02:11:37;;;;;;;1999.90;999.90;;;;;;;20.17;69.97;100228.34;5050021;28;20100;-69
2023/07/05 02:14:04;;;;;;;1999.90;999.90;;;;;;;20.48;68.64;100231.81;5032403;28;20059;-69
2023/07/05 02:16:29;;;;;;;1999.90;999.90;;;;;;;20.37;69.80;100228.09;5044670;28;20064;-69
2023/07/05 02:18:55;;;;;;;1999.90;999.90;;;;;;;21.16;68.01;100219.63;5052024;28;20067;-69
2023/07/05 02:21:20;;;;;;;1999.90;999.90;;;;;;;20.46;68.21;100233.69;5052372;28;20032;-69
2023/07/05 02:23:45;;;;;;;1999.90;999.90;;;;;;;20.96;65.65;100225.38;5069673;28;20038;-69
2023/07/05 02:26:11;;;;;;;1999.90;999.90;;;;;;;21.13;65.36;100227.81;5067344;28;20032;-69
2023/07/05 02:28:36;;;;;;;1999.90;999.90;;;;;;;19.31;71.33;100236.78;5044373;28;20021;-68
2023/07/05 02:31:04;;;;;;;1999.90;999.90;;;;;;;20.54;66.59;100229.72;5031395;28;20036;-68
2023/07/05 02:33:30;;;;;;;1999.90;999.90;;;;;;;20.99;64.47;100225.16;5050228;28;20075;-68
2023/07/05 02:35:55;;;;;;;1999.90;999.90;;;;;;;20.45;66.71;100234.63;5037959;28;20523;-68
2023/07/05 02:38:20;;;;;;;1999.90;999.90;;;;;;;19.98;65.72;100225.94;5050279;28;20123;-69
2023/07/05 02:40:49;;;;;;;1999.90;999.90;;;;;;;20.46;65.63;100223.06;5032088;28;20028;-70
2023/07/05 02:43:15;;;;;;;1999.90;999.90;;;;;;;20.60;64.04;100219.56;5032019;28;20400;-69
2023/07/05 02:45:40;;;;;;;1999.90;999.90;;;;;;;21.33;59.97;100228.34;5040869;28;20036;-69
2023/07/05 02:48:06;;;;;;;1999.90;999.90;;;;;;;20.04;64.46;100221.22;5044593;28;20032;-69
2023/07/05 02:50:32;;;;;;;1999.90;999.90;;;;;;;20.21;62.58;100206.94;5050942;28;20023;-68
2023/07/05 02:52:57;;;;;;;1999.90;999.90;;;;;;;20.76;62.57;100213.34;5050008;28;20115;-69
2023/07/05 02:55:23;;;;;;;1999.90;999.90;;;;;;;20.02;64.43;100208.03;5067151;28;20047;-70
2023/07/05 02:57:48;;;;;;;1999.90;999.90;;;;;;;20.99;59.78;100203.91;5085778;28;20039;-69
2023/07/05 03:00:14;;;;;;;1999.90;999.90;;;;;;;19.62;66.02;100210.34;5087927;28;20051;-70
2023/07/05 03:02:39;;;;;;;1999.90;999.90;;;;;;;19.96;64.27;100219.00;5089812;28;20081;-69
2023/07/05 03:05:13;;;;;;;1999.90;999.90;;;;;;;20.17;64.38;100204.47;5085436;28;20193;-70
2023/07/05 03:07:38;;;;;;;1999.90;999.90;;;;;;;20.63;61.66;100207.91;5067695;28;20027;-69
2023/07/05 03:10:05;;;;;;;1999.90;999.90;;;;;;;20.41;62.49;100209.22;5068539;28;21507;-69
2023/07/05 03:12:30;;;;;;;1999.90;999.90;;;;;;;20.40;60.64;100191.63;5077120;28;20150;-68
2023/07/05 03:14:55;;;;;;;1999.90;999.90;;;;;;;20.88;59.61;100199.28;5088330;28;20588;-69
2023/07/05 03:17:21;;;;;;;1999.90;999.90;;;;;;;19.64;64.15;100188.09;5077114;28;20069;-69
2023/07/05 03:19:46;;;;;;;1999.90;999.90;;;;;;;20.46;59.72;100201.84;5074817;28;20027;-69
2023/07/05 03:22:13;;;;;;;1999.90;999.90;;;;;;;20.73;60.72;100177.22;5087893;28;20066;-70
2023/07/05 03:24:38;;;;;;;1999.90;999.90;;;;;;;20.53;61.05;100180.25;5073331;28;20055;-70
2023/07/05 03:27:03;;;;;;;1999.90;999.90;;;;;;;20.19;61.25;100187.63;5067339;28;20071;-69
2023/07/05 03:29:29;;;;;;;1999.90;999.90;;;;;;;19.89;62.19;100180.53;5067593;28;20083;-69
2023/07/05 03:31:54;;;;;;;1999.90;999.90;;;;;;;20.45;60.00;100183.38;5067761;28;20032;-69
2023/07/05 03:34:20;;;;;;;1999.90;999.90;;;;;;;20.63;59.87;100181.38;5067398;28;20029;-70
2023/07/05 03:36:45;;;;;;;1999.90;999.90;;;;;;;20.10;61.59;100184.56;5079725;28;20082;-70
2023/07/05 03:39:14;;;;;;;1999.90;999.90;;;;;;;19.94;63.85;100168.72;5088752;28;20082;-69
2023/07/05 03:41:39;;;;;;;1999.90;999.90;;;;;;;20.48;59.50;100172.56;5103895;28;20024;-70
2023/07/05 03:44:05;;;;;;;1999.90;999.90;;;;;;;19.67;62.69;100171.16;5087783;28;20028;-69
2023/07/05 03:46:30;;;;;;;1999.90;999.90;;;;;;;19.46;63.49;100166.16;5090678;28;20032;-70
2023/07/05 03:48:56;;;;;;;1999.90;999.90;;;;;;;20.27;60.74;100169.44;5086461;28;20491;-69
2023/07/05 03:51:22;;;;;;;1999.90;999.90;;;;;;;20.17;60.12;100164.66;5084688;28;20177;-70
2023/07/05 03:53:53;;;;;;;1999.90;999.90;;;;;;;20.76;58.10;100163.75;5091151;28;20102;-68
2023/07/05 03:56:19;;;;;;;1999.90;999.90;;;;;;;20.13;59.85;100173.75;5089095;28;20048;-70
2023/07/05 03:58:45;;;;;;;1999.90;999.90;;;;;;;20.30;59.60;100162.13;5090882;28;20032;-70
2023/07/05 04:01:15;;;;;;;1999.90;999.90;;;;;;;20.60;61.90;100165.63;5089432;28;20032;-70
2023/07/05 04:03:42;;;;;;;1999.90;999.90;;;;;;;21.00;59.56;100163.13;5081009;28;20028;-71
2023/07/05 04:06:07;;;;;;;1999.90;999.90;;;;;;;19.36;66.42;100162.34;5071923;28;20273;-71
2023/07/05 04:08:33;;;;;;;1999.90;999.90;;;;;;;19.86;66.92;100160.34;5088735;28;20064;-70
2023/07/05 04:10:58;;;;;;;1999.90;999.90;;;;;;;20.42;64.97;100189.72;5071968;28;20047;-72
2023/07/05 04:13:25;;;;;;;1999.90;999.90;;;;;;;20.56;65.17;100193.31;5071928;28;20059;-72
2023/07/05 04:16:06;;;;;;;1999.90;999.90;;;;;;;21.20;62.03;100201.72;5088574;28;20331;-71
2023/07/05 04:18:32;;;;;;;1999.90;999.90;;;;;;;18.97;74.21;100203.38;5073542;28;20476;-72
2023/07/05 04:20:59;;;;;;;1999.90;999.90;;;;;;;19.72;70.38;100194.78;5080239;28;20047;-72
2023/07/05 04:23:24;;;;;;;1999.90;999.90;;;;;;;21.12;62.65;100198.69;5090173;28;20031;-71
2023/07/05 04:26:11;;;;;;;1999.90;999.90;;;;;;;20.61;66.42;100196.56;5091516;28;20024;-72
2023/07/05 04:28:37;;;;;;;1999.90;999.90;;;;;;;19.21;71.82;100205.63;5089432;28;20032;-70
2023/07/05 04:31:04;;;;;;;1999.90;999.90;;;;;;;19.98;68.92;100190.59;5088898;28;20111;-72
2023/07/05 04:33:29;;;;;;;1999.90;999.90;;;;;;;18.89;73.57;100208.22;5073166;28;20468;-71
2023/07/05 04:35:57;;;;;;;1999.90;999.90;;;;;;;19.83;68.71;100203.81;5072262;28;20043;-71
2023/07/05 04:38:23;;;;;;;1999.90;999.90;;;;;;;18.89;71.87;100210.88;5087145;28;20085;-71
2023/07/05 04:40:49;;;;;;;1999.90;999.90;;;;;;;19.47;70.51;100191.72;5091155;28;20127;-71
2023/07/05 04:43:14;;;;;;;1999.90;999.90;;;;;;;20.20;68.03;100186.69;5082816;28;20115;-71
2023/07/05 04:45:40;;;;;;;1999.90;999.90;;;;;;;20.76;63.51;100182.34;5092372;28;20054;-73
2023/07/05 04:48:06;;;;;;;1999.90;999.90;;;;;;;21.34;64.04;100182.22;5080886;28;20034;-73
2023/07/05 04:50:31;;;;;;;1999.90;999.90;;;;;;;20.34;65.69;100195.47;5086710;28;20067;-73
2023/07/05 04:52:57;;;;;;;1999.90;999.90;;;;;;;19.68;70.35;100199.38;5070625;28;20038;-72
2023/07/05 04:55:23;;;;;;;1999.90;999.90;;;;;;;20.58;66.58;100207.34;5073145;28;20053;-73
2023/07/05 04:57:48;;;;;;;1999.90;999.90;;;;;;;20.24;67.44;100212.06;5069920;28;20435;-75
2023/07/05 05:00:14;;;;;;;1999.90;999.90;;;;;;;20.95;64.66;100215.69;5082383;28;20027;-72
2023/07/05 05:02:40;;;;;;;1999.90;999.90;;;;;;;19.62;68.91;100215.66;5092141;28;20480;-72
2023/07/05 05:05:06;;;;;;;1999.90;999.90;;;;;;;20.64;63.72;100204.31;5087492;28;20127;-72
2023/07/05 05:07:32;;;;;;;1999.90;999.90;;;;;;;18.98;68.51;100210.38;5088960;28;20577;-71
2023/07/05 05:09:59;;;;;;;1999.90;999.90;;;;;;;19.49;66.37;100203.13;5091078;28;20024;-71
2023/07/05 05:12:24;;;;;;;1999.90;999.90;;;;;;;19.64;65.99;100208.47;5090026;28;20451;-72
2023/07/05 05:14:50;;;;;;;1999.90;999.90;;;;;;;19.77;63.72;100220.06;5091258;28;20070;-73
2023/07/05 05:17:15;;;;;;;1999.90;999.90;;;;;;;19.23;66.60;100207.22;5080577;28;20123;-72
2023/07/05 05:19:41;;;;;;;1999.90;999.90;;;;;;;19.77;64.51;100213.88;5081725;28;20439;-71
2023/07/05 05:22:06;;;;;;;1999.90;999.90;;;;;;;18.95;64.12;100215.84;5086544;28;20587;-71
2023/07/05 05:24:32;;;;;;;1999.90;999.90;;;;;;;19.81;60.47;100211.03;5074509;28;20059;-72
2023/07/05 05:26:57;;;;;;;1999.90;999.90;;;;;;;19.16;61.03;100221.75;5078678;28;20093;-71
2023/07/05 05:29:23;;;;;;;1999.90;999.90;;;;;;;18.95;62.62;100216.69;5073346;28;20036;-72
2023/07/05 05:31:49;;;;;;;1999.90;999.90;;;;;;;19.24;60.65;100229.28;5071297;28;20020;-70
2023/07/05 05:34:15;;;;;;;1999.90;999.90;;;;;;;18.91;61.94;100235.50;5088040;28;20039;-72
2023/07/05 05:36:40;;;;;;;1999.90;999.90;;;;;;;18.05;68.50;100262.84;5090597;28;20028;-71
2023/07/05 05:39:07;;;;;;;1999.90;999.90;;;;;;;17.38;70.14;100262.53;5085949;28;20385;-72
2023/07/05 05:41:33;;;;;;;1999.90;999.90;;;;;;;17.46;69.09;100276.22;5069612;28;20028;-72
2023/07/05 05:43:58;;;;;;;1999.90;999.90;;;;;;;18.31;68.50;100263.28;5091037;28;20050;-72
2023/07/05 05:46:24;;;;;;;1999.90;999.90;;;;;;;17.71;72.76;100282.09;5090854;28;20472;-73
2023/07/05 05:48:49;;;;;;;1999.90;999.90;;;;;;;16.83;72.90;100281.75;5090101;28;20506;-73
2023/07/05 05:51:14;;;;;;;1999.90;999.90;;;;;;;16.84;74.50;100285.22;5089523;28;20539;-74
2023/07/05 05:53:40;;;;;;;1999.90;999.90;;;;;;;18.15;71.03;100284.38;5091999;28;20035;-70
2023/07/05 05:56:05;;;;;;;1999.90;999.90;;;;;;;18.24;69.07;100273.31;5086076;28;20075;-74
2023/07/05 05:58:31;;;;;;;1999.90;999.90;;;;;;;17.38;70.84;100275.72;5070703;28;20025;-73
2023/07/05 06:01:01;;;;;;;1999.90;999.90;;;;;;;16.74;74.26;100277.72;5070547;28;20066;-74
2023/07/05 06:03:26;;;;;;;1999.90;999.90;;;;;;;16.94;72.69;100273.38;5083812;28;20043;-74
2023/07/05 06:05:54;;;;;;;1999.90;999.90;;;;;;;17.55;70.42;100284.63;5090635;28;20024;-74
2023/07/05 06:08:19;;;;;;;1999.90;999.90;;;;;;;17.50;70.55;100276.06;5088342;28;20028;-73
2023/07/05 06:10:46;;;;;;;1999.90;999.90;;;;;;;17.05;71.09;100271.09;5069704;28;20377;-73
2023/07/05 06:13:12;;;;;;;1999.90;999.90;;;;;;;17.23;71.29;100263.25;5078916;28;20062;-73
2023/07/05 06:15:38;;;;;;;1999.90;999.90;;;;;;;17.12;72.37;100272.50;5069672;28;20498;-74
2023/07/05 06:18:03;;;;;;;1999.90;999.90;;;;;;;17.81;69.78;100255.13;5085755;28;20076;-73
2023/07/05 06:20:33;;;;;;;1999.90;999.90;;;;;;;17.09;73.83;100266.50;5089140;28;20032;-73
2023/07/05 06:22:59;;;;;;;1999.90;999.90;;;;;;;17.93;71.02;100250.22;5079610;28;20048;-74
2023/07/05 06:25:24;;;;;;;1999.90;999.90;;;;;;;17.59;73.15;100270.34;5069868;28;20056;-73
2023/07/05 06:27:50;;;;;;;1999.90;999.90;;;;;;;17.24;74.34;100284.31;5086319;28;20121;-73
2023/07/05 06:30:15;;;;;;;1999.90;999.90;;;;;;;17.04;77.25;100273.81;5078291;28;20108;-72
2023/07/05 06:32:41;;;;;;;1999.90;999.90;;;;;;;17.53;73.48;100281.19;5076916;28;20115;-75
2023/07/05 06:35:07;;;;;;;1999.90;999.90;;;;;;;18.18;71.92;100268.34;5077138;28;20541;-73
2023/07/05 06:37:32;;;;;;;1999.90;999.90;;;;;;;17.85;76.60;100286.72;5075550;28;20032;-74
2023/07/05 06:39:57;;;;;;;1999.90;999.90;;;;;;;17.22;78.76;100287.94;5079798;28;20054;-74
2023/07/05 06:42:23;;;;;;;1999.90;999.90;;;;;;;17.46;80.60;100286.78;5083559;28;20034;-74
2023/07/05 06:44:48;;;;;;;1999.90;999.90;;;;;;;17.61;78.47;100279.03;5085999;28;20097;-75
2023/07/05 06:47:14;;;;;;;1999.90;999.90;;;;;;;17.70;78.49;100289.19;5071160;28;20021;-74
2023/07/05 06:49:40;;;;;;;1999.90;999.90;;;;;;;17.93;77.53;100317.16;5069896;28;20511;-75
2023/07/05 06:52:06;;;;;;;1999.90;999.90;;;;;;;17.74;82.04;100327.75;5074700;28;20029;-75
2023/07/05 06:54:31;;;;;;;1999.90;999.90;;;;;;;17.69;80.27;100327.09;5069552;28;20137;-74
2023/07/05 06:56:56;;;;;;;1999.90;999.90;;;;;;;17.52;80.95;100321.78;5069546;28;20025;-75
2023/07/05 06:59:22;;;;;;;1999.90;999.90;;;;;;;17.90;81.38;100321.72;5070387;28;20033;-75
2023/07/05 07:01:50;;;;;;;1999.90;999.90;;;;;;;18.47;74.29;100325.06;5069543;28;20067;-74
2023/07/05 07:04:16;;;;;;;1999.90;999.90;;;;;;;18.02;79.05;100326.44;5078222;28;20064;-77
2023/07/05 07:06:41;;;;;;;1999.90;999.90;;;;;;;17.63;79.16;100340.63;5088422;28;20032;-76
2023/07/05 07:09:07;;;;;;;1999.90;999.90;;;;;;;17.74;79.54;100338.31;5089726;28;20085;-76
2023/07/05 07:11:32;;;;;;;1999.90;999.90;;;;;;;17.51;78.91;100346.47;5090319;28;20027;-76
2023/07/05 07:13:58;;;;;;;1999.90;999.90;;;;;;;17.38;83.07;100360.25;5081289;28;20036;-75
2023/07/05 07:16:23;;;;;;;1999.90;999.90;;;;;;;17.61;81.42;100366.25;5069846;28;20024;-74
2023/07/05 07:18:50;;;;;;;1999.90;999.90;;;;;;;17.33;80.21;100370.16;5086358;28;20028;-76
2023/07/05 07:21:18;;;;;;;1999.90;999.90;;;;;;;17.38;81.09;100385.78;5076019;28;20119;-75
2023/07/05 07:23:47;;;;;;;1999.90;999.90;;;;;;;17.89;78.58;100379.03;5075571;28;20051;-74
2023/07/05 07:26:17;;;;;;;1999.90;999.90;;;;;;;18.34;76.33;100379.56;5074637;28;20068;-74
2023/07/05 07:28:48;;;;;;;1999.90;999.90;;;;;;;18.04;75.67;100405.69;5076450;28;20052;-74
2023/07/05 07:31:21;;;;;;;1999.90;999.90;;;;;;;18.33;73.57;100412.22;5086161;28;20032;-75
2023/07/05 07:33:50;;;;;;;1999.90;999.90;;;;;;;18.90;70.31;100419.13;5084574;28;20028;-74
2023/07/05 07:36:18;;;;;;;1999.90;999.90;;;;;;;17.32;76.51;100429.19;5089944;28;20032;-74
2023/07/05 07:38:43;;;;;;;1999.90;999.90;;;;;;;17.89;74.85;100423.13;5088613;28;20024;-77
2023/07/05 07:41:16;;;;;;;1999.90;999.90;;;;;;;18.43;72.90;100437.28;5082395;28;20108;-76
2023/07/05 07:43:42;;;;;;;1999.90;999.90;;;;;;;18.14;74.16;100441.34;5069265;28;20036;-74
2023/07/05 07:46:16;;;;;;;1999.90;999.90;;;;;;;18.28;74.24;100448.63;5075979;28;20307;-74
2023/07/05 07:48:43;;;;;;;1999.90;999.90;;;;;;;17.83;73.93;100470.97;5086668;28;20048;-75
2023/07/05 07:51:10;;;;;;;1999.90;999.90;;;;;;;17.65;79.88;100476.16;5086894;28;20503;-77
2023/07/05 07:53:35;;;;;;;1999.90;999.90;;;;;;;17.65;78.65;100486.75;5088351;28;20077;-77
2023/07/05 07:56:08;;;;;;;1999.90;999.90;;;;;;;18.52;73.85;100498.63;5084603;28;20056;-76
2023/07/05 07:58:33;;;;;;;1999.90;999.90;;;;;;;18.21;77.21;100487.72;5075830;28;20487;-75
2023/07/05 08:01:09;;;;;;;1999.90;999.90;;;;;;;18.41;76.94;100485.91;5088809;28;20039;-77
2023/07/05 08:03:35;;;;;;;1999.90;999.90;;;;;;;19.07;73.12;100519.75;5086759;28;20025;-77
2023/07/05 08:06:00;;;;;;;1999.90;999.90;;;;;;;18.55;77.01;100530.25;5074345;28;20058;-76
2023/07/05 08:08:25;;;;;;;1999.90;999.90;;;;;;;17.07;100.00;100549.09;5088588;28;20024;-73
2023/07/05 08:10:51;;;;;;;1999.90;999.90;;;;;;;16.70;99.74;100513.63;5088894;28;20036;-76
2023/07/05 08:13:16;;;;;;;1999.90;999.90;;;;;;;17.93;87.44;100525.19;5069891;28;20151;-77
2023/07/05 08:15:42;;;;;;;1999.90;999.90;;;;;;;17.99;87.25;100522.25;5068569;28;20373;-77
2023/07/05 08:18:07;;;;;;;1999.90;999.90;;;;;;;17.05;90.62;100534.22;5069128;28;20029;-77
2023/07/05 08:20:33;;;;;;;1999.90;999.90;;;;;;;18.54;81.55;100517.94;5074319;28;20020;-76
2023/07/05 08:23:05;;;;;;;1999.90;999.90;;;;;;;18.98;78.00;100528.16;5077994;28;20038;-75
2023/07/05 08:25:33;;;;;;;1999.90;999.90;;;;;;;19.30;75.35;100523.03;5070351;28;20526;-73
2023/07/05 08:27:59;;;;;;;1999.90;999.90;;;;;;;18.93;79.34;100519.59;5073780;28;20032;-74
2023/07/05 08:30:26;;;;;;;1999.90;999.90;;;;;;;18.97;83.02;100559.09;5068616;28;20452;-73
2023/07/05 08:32:51;;;;;;;1999.90;999.90;;;;;;;19.37;76.23;100577.44;5070895;28;20040;-73
2023/07/05 08:35:17;;;;;;;1999.90;999.90;;;;;;;19.87;75.06;100569.63;5080356;28;20040;-74
2023/07/05 08:37:48;;;;;;;1999.90;999.90;;;;;;;20.02;76.37;100558.19;5081635;28;20024;-73
2023/07/05 08:40:17;;;;;;;1999.90;999.90;;;;;;;19.90;74.77;100582.72;5079438;28;20055;-73
2023/07/05 08:42:53;;;;;;;1999.90;999.90;;;;;;;19.91;74.14;100593.22;5073795;28;20024;-74
2023/07/05 08:45:27;;;;;;;1999.90;999.90;;;;;;;20.42;71.58;100594.97;5084580;28;20020;-75
2023/07/05 08:47:57;;;;;;;1999.90;999.90;;;;;;;20.96;66.59;100589.31;5083267;28;20024;-75
2023/07/05 08:50:32;;;;;;;1999.90;999.90;;;;;;;20.56;66.65;100604.81;5079963;28;20444;-75
2023/07/05 08:53:20;;;;;;;1999.90;999.90;;;;;;;20.44;67.58;100595.72;5078617;28;20063;-75
2023/07/05 08:55:58;;;;;;;1999.90;999.90;;;;;;;21.93;59.88;100614.66;5071634;28;20049;-75
2023/07/05 08:58:26;;;;;;;1999.90;999.90;;;;;;;21.81;60.43;100627.75;5089433;28;20096;-73
2023/07/05 09:00:55;;;;;;;1999.90;999.90;;;;;;;20.96;59.95;100629.16;5090632;28;20476;-73
2023/07/05 09:03:22;;;;;;;1999.90;999.90;;;;;;;21.37;59.49;100641.84;5091975;28;20450;-74
2023/07/05 09:06:03;;;;;;;1999.90;999.90;;;;;;;21.90;57.69;100652.09;5091974;28;20031;-74
2023/07/05 09:08:53;;;;;;;1999.90;999.90;;;;;;;20.53;62.96;100647.47;5071828;28;20063;-74
2023/07/05 09:11:18;;;;;;;1999.90;999.90;;;;;;;21.16;58.32;100665.22;5071324;28;20039;-74
2023/07/05 09:13:44;;;;;;;1999.90;999.90;;;;;;;21.02;61.54;100666.84;5074876;28;20031;-73
2023/07/05 09:16:32;;;;;;;1999.90;999.90;;;;;;;21.44;60.03;100683.06;5092053;28;20024;-73
2023/07/05 09:19:18;;;;;;;1999.90;999.90;;;;;;;20.69;62.28;100696.16;5089821;28;20128;-72
2023/07/05 09:22:01;;;;;;;1999.90;999.90;;;;;;;21.11;60.59;100707.13;5089307;28;20070;-74
2023/07/05 09:24:34;;;;;;;1999.90;999.90;;;;;;;21.08;60.24;100718.78;5069111;28;20504;-73
2023/07/05 09:27:34;;;;;;;1999.90;999.90;;;;;;;21.00;60.67;100719.22;5071283;28;20507;-73
2023/07/05 09:30:11;;;;;;;1999.90;999.90;;;;;;;21.67;57.27;100726.97;5066056;28;20424;-73
2023/07/05 09:32:42;;;;;;;1999.90;999.90;;;;;;;21.36;57.14;100735.84;5080581;28;20024;-73
2023/07/05 09:35:16;;;;;;;1999.90;999.90;;;;;;;21.42;55.79;100732.84;5080819;28;20050;-72
2023/07/05 09:37:58;;;;;;;1999.90;999.90;;;;;;;21.57;56.08;100746.22;5083035;28;20543;-73
2023/07/05 09:40:28;;;;;;;1999.90;999.90;;;;;;;21.93;56.72;100745.03;5080108;28;20028;-73
2023/07/05 09:43:05;;;;;;;1999.90;999.90;;;;;;;21.47;58.23;100764.47;5089392;28;20035;-72
2023/07/05 09:45:31;;;;;;;1999.90;999.90;;;;;;;21.54;57.79;100759.69;5090604;28;20059;-72
2023/07/05 09:48:02;;;;;;;1999.90;999.90;;;;;;;23.03;53.21;100760.53;5074324;28;20068;-72
2023/07/05 09:50:28;;;;;;;1999.90;999.90;;;;;;;22.44;52.99;100769.50;5083588;28;20499;-73
2023/07/05 09:53:02;;;;;;;1999.90;999.90;;;;;;;22.43;51.29;100767.78;5086193;28;20042;-73
2023/07/05 09:55:28;;;;;;;1999.90;999.90;;;;;;;23.84;49.82;100773.06;5087237;28;20472;-72
2023/07/05 09:57:54;;;;;;;1999.90;999.90;;;;;;;22.10;51.94;100774.16;5080577;28;20025;-72
2023/07/05 10:00:20;;;;;;;1999.90;999.90;;;;;;;22.53;52.38;100784.91;5071335;28;20047;-72
2023/07/05 10:02:51;;;;;;;1999.90;999.90;;;;;;;23.01;50.07;100783.75;5088229;28;20126;-72
2023/07/05 10:05:25;;;;;;;1999.90;999.90;;;;;;;22.22;51.79;100801.00;5091287;28;20036;-72
2023/07/05 10:07:55;;;;;;;1999.90;999.90;;;;;;;22.50;52.29;100809.09;5072933;28;20037;-72
2023/07/05 10:10:32;;;;;;;1999.90;999.90;;;;;;;23.05;49.70;100806.59;5070780;28;20055;-72
2023/07/05 10:13:02;;;;;;;1999.90;999.90;;;;;;;22.38;50.96;100814.28;5070100;28;20029;-71
2023/07/05 10:15:28;;;;;;;1999.90;999.90;;;;;;;23.47;48.64;100807.50;5082358;28;20081;-72
2023/07/05 10:17:55;;;;;;;1999.90;999.90;;;;;;;22.97;48.42;100824.88;5084504;28;20039;-71
2023/07/05 10:20:36;;;;;;;1999.90;999.90;;;;;;;22.94;48.49;100825.06;5086940;28;20039;-72
2023/07/05 10:23:14;;;;;;;1999.90;999.90;;;;;;;24.46;46.84;100834.84;5083478;28;20036;-72
2023/07/05 10:25:41;;;;;;;1999.90;999.90;;;;;;;23.48;46.84;100843.91;5085002;28;20084;-72
2023/07/05 10:28:12;;;;;;;1999.90;999.90;;;;;;;24.03;46.27;100835.94;5081265;28;20537;-72
2023/07/05 10:30:52;;;;;;;1999.90;999.90;;;;;;;24.41;46.14;100861.00;5100542;28;20020;-72
2023/07/05 10:33:23;;;;;;;1999.90;999.90;;;;;;;23.51;45.24;100850.84;5073827;28;20084;-71
2023/07/05 10:35:57;;;;;;;1999.90;999.90;;;;;;;24.13;45.84;100869.06;5078990;28;20024;-72
2023/07/05 10:38:41;;;;;;;1999.90;999.90;;;;;;;23.42;47.68;100886.94;5079457;28;20467;-72
2023/07/05 10:41:31;;;;;;;1999.90;999.90;;;;;;;23.41;47.12;100887.94;5083443;28;20119;-72
2023/07/05 10:44:16;;;;;;;1999.90;999.90;;;;;;;23.74;45.15;100894.72;5077311;28;20484;-72
2023/07/05 10:46:45;;;;;;;1999.90;999.90;;;;;;;23.33;46.63;100901.75;5082984;28;20266;-72
2023/07/05 10:49:15;;;;;;;1999.90;999.90;;;;;;;24.05;45.01;100903.44;5075792;28;20028;-71
2023/07/05 10:51:50;;;;;;;1999.90;999.90;;;;;;;24.13;44.75;100917.13;5086532;28;20039;-72
2023/07/05 10:54:51;;;;;;;1999.90;999.90;;;;;;;24.69;42.90;100925.00;5080816;28;20032;-73
2023/07/05 10:57:40;;;;;;;1999.90;999.90;;;;;;;25.60;41.10;100925.00;5037909;28;20075;-72